createdAt,value
2016-02-24T00:00:05.658Z,0
2016-02-24T00:01:05.629Z,0
2016-02-24T00:02:05.663Z,0
2016-02-24T00:03:05.666Z,0
2016-02-24T00:04:05.637Z,0
2016-02-24T00:05:05.640Z,0
2016-02-24T00:06:05.627Z,0
2016-02-24T00:07:05.630Z,0
2016-02-24T00:08:05.633Z,0
2016-02-24T00:09:05.619Z,0
2016-02-24T00:10:05.607Z,0
2016-02-24T00:11:05.609Z,0
2016-02-24T00:12:05.612Z,0
2016-02-24T00:13:05.614Z,0
2016-02-24T00:14:05.586Z,0
2016-02-24T00:15:05.791Z,0
2016-02-24T00:16:05.606Z,0
2016-02-24T00:17:05.593Z,0
2016-02-24T00:18:05.643Z,0
2016-02-24T00:19:05.583Z,0
2016-02-24T00:20:05.602Z,0
2016-02-24T00:21:05.620Z,0
2016-02-24T00:22:05.576Z,0
2016-02-24T00:23:05.578Z,0
2016-02-24T00:24:05.582Z,0
2016-02-24T00:25:05.568Z,0
2016-02-24T00:26:05.571Z,0
2016-02-24T00:27:05.590Z,0
2016-02-24T00:28:05.561Z,0
2016-02-24T00:29:05.564Z,0
2016-02-24T00:30:05.536Z,0
2016-02-24T00:31:05.616Z,0
2016-02-24T00:32:05.541Z,0
2016-02-24T00:33:05.544Z,0
2016-02-24T00:34:05.577Z,0
2016-02-24T00:35:05.532Z,0
2016-02-24T00:36:05.525Z,0
2016-02-24T00:37:05.527Z,0
2016-02-24T00:38:05.530Z,0
2016-02-24T00:39:05.517Z,0
2016-02-24T00:40:05.582Z,0
2016-02-24T00:41:05.538Z,0
2016-02-24T00:42:05.525Z,0
2016-02-24T00:43:05.512Z,0
2016-02-24T00:44:05.499Z,0
2016-02-24T00:45:05.502Z,0
2016-02-24T00:46:05.521Z,0
2016-02-24T00:47:05.492Z,0
2016-02-24T00:48:05.479Z,0
2016-02-24T00:49:05.498Z,0
2016-02-24T00:50:05.500Z,0
2016-02-24T00:51:05.487Z,0
2016-02-24T00:52:05.489Z,0
2016-02-24T00:53:05.493Z,0
2016-02-24T00:54:05.323Z,0
2016-02-24T00:55:05.467Z,0
2016-02-24T00:56:05.469Z,0
2016-02-24T00:57:05.456Z,0
2016-02-24T00:58:05.458Z,0
2016-02-24T00:59:05.447Z,0
2016-02-24T01:00:05.480Z,0
2016-02-24T01:01:05.435Z,0
2016-02-24T01:02:05.439Z,0
2016-02-24T01:03:05.441Z,0
2016-02-24T01:04:05.475Z,0
2016-02-24T01:05:05.431Z,0
2016-02-24T01:06:05.481Z,0
2016-02-24T01:07:05.426Z,0
2016-02-24T01:08:05.444Z,0
2016-02-24T01:09:05.431Z,0
2016-02-24T01:10:05.434Z,0
2016-02-24T01:11:05.405Z,0
2016-02-24T01:12:05.423Z,0
2016-02-24T01:13:05.426Z,0
2016-02-24T01:14:05.412Z,0
2016-02-24T01:15:05.432Z,0
2016-02-24T01:16:05.418Z,0
2016-02-24T01:17:05.389Z,0
2016-02-24T01:18:05.392Z,0
2016-02-24T01:19:05.395Z,0
2016-02-24T01:20:05.398Z,0
2016-02-24T01:21:05.384Z,0
2016-02-24T01:22:05.387Z,0
2016-02-24T01:23:05.437Z,0
2016-02-24T01:24:05.362Z,0
2016-02-24T01:25:05.364Z,0
2016-02-24T01:26:05.367Z,0
2016-02-24T01:27:05.385Z,0
2016-02-24T01:28:04.623Z,0
2016-02-24T01:29:05.406Z,0
2016-02-24T01:30:05.394Z,0
2016-02-24T01:31:05.365Z,0
2016-02-24T01:32:05.336Z,0
2016-02-24T01:33:05.355Z,0
2016-02-24T01:34:05.358Z,0
2016-02-24T01:35:05.360Z,0
2016-02-24T01:36:05.332Z,0
2016-02-24T01:37:05.349Z,0
2016-02-24T01:38:05.338Z,0
2016-02-24T01:39:05.355Z,0
2016-02-24T01:40:05.327Z,0
2016-02-24T01:41:05.329Z,0
2016-02-24T01:42:05.316Z,0
2016-02-24T01:43:05.334Z,0
2016-02-24T01:44:05.322Z,0
2016-02-24T01:45:05.309Z,0
2016-02-24T01:46:05.311Z,0
2016-02-24T01:47:05.314Z,0
2016-02-24T01:48:05.317Z,0
2016-02-24T01:49:05.289Z,0
2016-02-24T01:50:05.306Z,0
2016-02-24T01:51:05.294Z,0
2016-02-24T01:52:05.281Z,0
2016-02-24T01:53:05.284Z,0
2016-02-24T01:54:05.287Z,0
2016-02-24T01:55:05.273Z,0
2016-02-24T01:56:05.260Z,0
2016-02-24T01:57:05.295Z,0
2016-02-24T01:58:05.266Z,0
2016-02-24T01:59:05.253Z,0
2016-02-24T02:00:05.272Z,0
2016-02-24T02:01:05.289Z,0
2016-02-24T02:02:05.245Z,0
2016-02-24T02:03:05.154Z,0
2016-02-24T02:04:05.235Z,0
2016-02-24T02:05:05.237Z,0
2016-02-24T02:06:05.271Z,0
2016-02-24T02:07:05.227Z,0
2016-02-24T02:08:05.246Z,0
2016-02-24T02:09:05.233Z,0
2016-02-24T02:10:05.235Z,0
2016-02-24T02:11:05.238Z,0
2016-02-24T02:12:05.226Z,0
2016-02-24T02:13:05.229Z,0
2016-02-24T02:14:05.215Z,0
2016-02-24T02:15:05.217Z,0
2016-02-24T02:16:05.205Z,0
2016-02-24T02:17:05.223Z,0
2016-02-24T02:18:05.210Z,0
2016-02-24T02:19:05.041Z,0
2016-02-24T02:20:05.215Z,0
2016-02-24T02:21:05.203Z,0
2016-02-24T02:22:05.190Z,0
2016-02-24T02:23:05.192Z,0
2016-02-24T02:24:05.179Z,0
2016-02-24T02:25:05.181Z,0
2016-02-24T02:26:05.201Z,0
2016-02-24T02:27:05.187Z,0
2016-02-24T02:28:05.175Z,0
2016-02-24T02:29:05.178Z,0
2016-02-24T02:30:05.181Z,0
2016-02-24T02:31:05.152Z,0
2016-02-24T02:32:05.170Z,0
2016-02-24T02:33:05.236Z,0
2016-02-24T02:34:05.160Z,0
2016-02-24T02:35:05.147Z,0
2016-02-24T02:36:05.149Z,0
2016-02-24T02:37:05.136Z,0
2016-02-24T02:38:05.154Z,0
2016-02-24T02:39:05.157Z,0
2016-02-24T02:40:05.144Z,0
2016-02-24T02:41:05.147Z,0
2016-02-24T02:42:05.134Z,0
2016-02-24T02:43:05.152Z,0
2016-02-24T02:44:05.124Z,0
2016-02-24T02:45:05.126Z,0
2016-02-24T02:46:05.129Z,0
2016-02-24T02:47:05.132Z,0
2016-02-24T02:48:05.041Z,0
2016-02-24T02:49:05.137Z,0
2016-02-24T02:50:05.124Z,0
2016-02-24T02:51:05.095Z,0
2016-02-24T02:52:05.115Z,0
2016-02-24T02:53:05.132Z,0
2016-02-24T02:54:05.103Z,0
2016-02-24T02:55:05.092Z,0
2016-02-24T02:56:05.125Z,0
2016-02-24T02:57:05.097Z,0
2016-02-24T02:58:05.100Z,0
2016-02-24T02:59:05.070Z,0
2016-02-24T03:00:05.104Z,0
2016-02-24T03:01:05.075Z,0
2016-02-24T03:02:05.078Z,0
2016-02-24T03:03:05.128Z,0
2016-02-24T03:04:05.068Z,0
2016-02-24T03:05:05.149Z,0
2016-02-24T03:06:05.058Z,0
2016-02-24T03:07:05.060Z,0
2016-02-24T03:08:05.064Z,0
2016-02-24T03:09:05.050Z,0
2016-02-24T03:10:05.069Z,0
2016-02-24T03:11:05.056Z,0
2016-02-24T03:12:04.902Z,0
2016-02-24T03:13:05.030Z,0
2016-02-24T03:14:04.908Z,0
2016-02-24T03:15:05.020Z,0
2016-02-24T03:16:05.039Z,0
2016-02-24T03:17:05.027Z,0
2016-02-24T03:18:05.092Z,0
2016-02-24T03:19:05.016Z,0
2016-02-24T03:20:05.049Z,0
2016-02-24T03:21:05.006Z,0
2016-02-24T03:22:05.008Z,0
2016-02-24T03:23:05.011Z,0
2016-02-24T03:24:05.013Z,0
2016-02-24T03:25:05.016Z,0
2016-02-24T03:26:04.862Z,0
2016-02-24T03:27:04.991Z,0
2016-02-24T03:28:04.993Z,0
2016-02-24T03:29:04.996Z,0
2016-02-24T03:30:04.982Z,0
2016-02-24T03:31:04.970Z,0
2016-02-24T03:32:04.973Z,0
2016-02-24T03:33:04.990Z,0
2016-02-24T03:34:04.978Z,0
2016-02-24T03:35:05.012Z,0
2016-02-24T03:36:04.967Z,0
2016-02-24T03:37:04.955Z,0
2016-02-24T03:38:04.973Z,0
2016-02-24T03:39:04.804Z,0
2016-02-24T03:40:04.992Z,0
2016-02-24T03:41:04.952Z,0
2016-02-24T03:42:04.973Z,0
2016-02-24T03:43:04.900Z,0
2016-02-24T03:44:04.907Z,0
2016-02-24T03:45:04.898Z,0
2016-02-24T03:46:04.898Z,0
2016-02-24T03:47:04.865Z,0
2016-02-24T03:48:04.863Z,0
2016-02-24T03:49:04.846Z,0
2016-02-24T03:50:04.875Z,0
2016-02-24T03:51:04.829Z,0
2016-02-24T03:52:04.878Z,0
2016-02-24T03:53:04.863Z,0
2016-02-24T03:54:04.818Z,0
2016-02-24T03:55:04.834Z,0
2016-02-24T03:56:04.868Z,0
2016-02-24T03:57:04.824Z,0
2016-02-24T03:58:04.809Z,0
2016-02-24T03:59:04.811Z,0
2016-02-24T04:00:04.829Z,0
2016-02-24T04:01:04.801Z,0
2016-02-24T04:02:04.818Z,0
2016-02-24T04:03:04.821Z,0
2016-02-24T04:04:04.823Z,0
2016-02-24T04:05:04.816Z,0
2016-02-24T04:06:04.787Z,0
2016-02-24T04:07:04.775Z,0
2016-02-24T04:08:04.824Z,0
2016-02-24T04:09:04.795Z,0
2016-02-24T04:10:04.814Z,0
2016-02-24T04:11:04.770Z,0
2016-02-24T04:12:04.788Z,0
2016-02-24T04:13:04.775Z,0
2016-02-24T04:14:04.762Z,0
2016-02-24T04:15:04.764Z,0
2016-02-24T04:16:04.752Z,0
2016-02-24T04:17:04.770Z,0
2016-02-24T04:18:04.741Z,0
2016-02-24T04:19:04.775Z,0
2016-02-24T04:20:04.746Z,0
2016-02-24T04:21:04.734Z,0
2016-02-24T04:22:04.752Z,0
2016-02-24T04:23:04.739Z,0
2016-02-24T04:24:04.742Z,0
2016-02-24T04:25:04.744Z,0
2016-02-24T04:26:04.732Z,0
2016-02-24T04:27:04.735Z,0
2016-02-24T04:28:04.722Z,0
2016-02-24T04:29:04.709Z,0
2016-02-24T04:30:04.711Z,0
2016-02-24T04:31:04.730Z,0
2016-02-24T04:32:04.701Z,0
2016-02-24T04:33:04.688Z,0
2016-02-24T04:34:04.707Z,0
2016-02-24T04:35:04.709Z,0
2016-02-24T04:36:04.680Z,0
2016-02-24T04:37:04.762Z,0
2016-02-24T04:38:04.686Z,0
2016-02-24T04:39:04.673Z,0
2016-02-24T04:40:04.706Z,0
2016-02-24T04:41:04.678Z,0
2016-02-24T04:42:04.728Z,0
2016-02-24T04:43:04.684Z,0
2016-02-24T04:44:04.671Z,0
2016-02-24T04:45:04.673Z,0
2016-02-24T04:46:04.660Z,0
2016-02-24T04:47:04.679Z,0
2016-02-24T04:48:04.650Z,0
2016-02-24T04:49:04.653Z,0
2016-02-24T04:50:04.655Z,0
2016-02-24T04:51:04.658Z,0
2016-02-24T04:52:04.646Z,0
2016-02-24T04:53:04.663Z,0
2016-02-24T04:54:04.624Z,0
2016-02-24T04:55:04.626Z,0
2016-02-24T04:56:04.644Z,0
2016-02-24T04:57:04.616Z,0
2016-02-24T04:58:04.619Z,0
2016-02-24T04:59:04.636Z,0
2016-02-24T05:00:04.624Z,0
2016-02-24T05:01:04.627Z,0
2016-02-24T05:02:04.630Z,0
2016-02-24T05:03:04.460Z,0
2016-02-24T05:04:04.635Z,0
2016-02-24T05:05:04.638Z,0
2016-02-24T05:06:04.593Z,0
2016-02-24T05:07:04.611Z,0
2016-02-24T05:08:04.599Z,0
2016-02-24T05:09:04.585Z,0
2016-02-24T05:10:04.573Z,0
2016-02-24T05:11:04.576Z,0
2016-02-24T05:12:04.579Z,0
2016-02-24T05:13:04.581Z,0
2016-02-24T05:14:04.584Z,0
2016-02-24T05:15:04.571Z,0
2016-02-24T05:16:04.590Z,0
2016-02-24T05:17:04.576Z,0
2016-02-24T05:18:04.548Z,0
2016-02-24T05:19:04.550Z,0
2016-02-24T05:20:04.537Z,0
2016-02-24T05:21:04.555Z,0
2016-02-24T05:22:04.527Z,0
2016-02-24T05:23:04.561Z,0
2016-02-24T05:24:04.376Z,0
2016-02-24T05:25:04.520Z,0
2016-02-24T05:26:04.537Z,0
2016-02-24T05:27:04.525Z,0
2016-02-24T05:28:04.512Z,0
2016-02-24T05:29:04.499Z,0
2016-02-24T05:30:04.502Z,0
2016-02-24T05:31:04.488Z,0
2016-02-24T05:32:04.491Z,0
2016-02-24T05:33:04.510Z,0
2016-02-24T05:34:04.480Z,0
2016-02-24T05:35:04.500Z,0
2016-02-24T05:36:04.486Z,0
2016-02-24T05:37:04.488Z,0
2016-02-24T05:38:04.477Z,0
2016-02-24T05:39:04.494Z,0
2016-02-24T05:40:04.482Z,0
2016-02-24T05:41:04.452Z,0
2016-02-24T05:42:04.455Z,0
2016-02-24T05:43:04.458Z,4
2016-02-24T05:44:04.460Z,4
2016-02-24T05:45:04.308Z,4
2016-02-24T05:46:04.482Z,4
2016-02-24T05:47:04.468Z,0
2016-02-24T05:48:04.456Z,0
2016-02-24T05:49:04.428Z,4
2016-02-24T05:50:04.446Z,4
2016-02-24T05:51:04.433Z,4
2016-02-24T05:52:04.420Z,4
2016-02-24T05:53:04.454Z,4
2016-02-24T05:54:04.426Z,8
2016-02-24T05:55:04.445Z,8
2016-02-24T05:56:04.415Z,8
2016-02-24T05:57:04.403Z,8
2016-02-24T05:58:04.405Z,8
2016-02-24T05:59:04.439Z,12
2016-02-24T06:00:04.394Z,12
2016-02-24T06:01:04.381Z,16
2016-02-24T06:02:04.415Z,20
2016-02-24T06:03:04.403Z,20
2016-02-24T06:04:04.405Z,24
2016-02-24T06:05:04.377Z,28
2016-02-24T06:06:04.364Z,32
2016-02-24T06:07:04.382Z,40
2016-02-24T06:08:04.370Z,48
2016-02-24T06:09:04.389Z,56
2016-02-24T06:10:04.375Z,56
2016-02-24T06:11:04.347Z,64
2016-02-24T06:12:04.350Z,72
2016-02-24T06:13:04.384Z,88
2016-02-24T06:14:04.339Z,100
2016-02-24T06:15:04.358Z,112
2016-02-24T06:16:04.345Z,132
2016-02-24T06:17:04.332Z,152
2016-02-24T06:18:04.335Z,176
2016-02-24T06:19:04.353Z,196
2016-02-24T06:20:04.309Z,208
2016-02-24T06:21:04.030Z,232
2016-02-24T06:22:04.330Z,256
2016-02-24T06:23:04.333Z,288
2016-02-24T06:24:04.319Z,320
2016-02-24T06:25:04.322Z,348
2016-02-24T06:26:04.309Z,372
2016-02-24T06:27:04.280Z,404
2016-02-24T06:28:04.314Z,440
2016-02-24T06:29:04.285Z,476
2016-02-24T06:30:04.288Z,512
2016-02-24T06:31:04.291Z,540
2016-02-24T06:32:04.326Z,580
2016-02-24T06:33:04.281Z,616
2016-02-24T06:34:04.268Z,660
2016-02-24T06:35:04.270Z,700
2016-02-24T06:36:04.243Z,736
2016-02-24T06:37:04.261Z,780
2016-02-24T06:38:04.310Z,836
2016-02-24T06:39:04.250Z,876
2016-02-24T06:40:04.237Z,912
2016-02-24T06:41:04.240Z,952
2016-02-24T06:42:04.242Z,1032
2016-02-24T06:43:04.262Z,1096
2016-02-24T06:44:03.997Z,1136
2016-02-24T06:45:04.275Z,1184
2016-02-24T06:46:04.215Z,1228
2016-02-24T06:47:07.804Z,1280
2016-02-24T06:48:04.219Z,1336
2016-02-24T06:49:04.222Z,1408
2016-02-24T06:50:04.225Z,1500
2016-02-24T06:51:04.197Z,1576
2016-02-24T06:52:04.183Z,1656
2016-02-24T06:53:04.233Z,1700
2016-02-24T06:54:04.174Z,1796
2016-02-24T06:55:04.036Z,1876
2016-02-24T06:56:04.210Z,1876
2016-02-24T06:57:04.181Z,1860
2016-02-24T06:58:04.044Z,1880
2016-02-24T06:59:04.171Z,1920
2016-02-24T07:00:04.174Z,1924
2016-02-24T07:01:04.162Z,1896
2016-02-24T07:02:04.165Z,1908
2016-02-24T07:03:04.167Z,1892
2016-02-24T07:04:04.153Z,1888
2016-02-24T07:05:04.157Z,1960
2016-02-24T07:06:04.175Z,2064
2016-02-24T07:07:04.130Z,2148
2016-02-24T07:08:04.134Z,2172
2016-02-24T07:09:04.141Z,2192
2016-02-24T07:10:04.158Z,2184
2016-02-24T07:11:04.178Z,2188
2016-02-24T07:12:04.133Z,2308
2016-02-24T07:13:04.105Z,2344
2016-02-24T07:14:04.122Z,2488
2016-02-24T07:15:04.110Z,2588
2016-02-24T07:16:04.113Z,2624
2016-02-24T07:17:04.099Z,2636
2016-02-24T07:18:04.103Z,2620
2016-02-24T07:19:04.121Z,2552
2016-02-24T07:20:04.107Z,2552
2016-02-24T07:21:04.110Z,2680
2016-02-24T07:22:04.097Z,2772
2016-02-24T07:23:04.100Z,2904
2016-02-24T07:24:04.087Z,2908
2016-02-24T07:25:04.105Z,3032
2016-02-24T07:26:04.077Z,3196
2016-02-24T07:27:03.329Z,3336
2016-02-24T07:28:04.083Z,3512
2016-02-24T07:29:04.085Z,3664
2016-02-24T07:30:04.073Z,3496
2016-02-24T07:31:04.075Z,3256
2016-02-24T07:32:04.156Z,3112
2016-02-24T07:33:04.065Z,2988
2016-02-24T07:34:04.098Z,2492
2016-02-24T07:35:04.054Z,2352
2016-02-24T07:36:04.056Z,3124
2016-02-24T07:37:04.044Z,2240
2016-02-24T07:38:04.031Z,2224
2016-02-24T07:39:04.049Z,2288
2016-02-24T07:40:04.036Z,2244
2016-02-24T07:41:04.055Z,2236
2016-02-24T07:42:04.025Z,2268
2016-02-24T07:43:04.028Z,2336
2016-02-24T07:44:04.016Z,2428
2016-02-24T07:45:04.034Z,2512
2016-02-24T07:46:04.036Z,2604
2016-02-24T07:47:04.024Z,2724
2016-02-24T07:48:04.027Z,2828
2016-02-24T07:49:04.045Z,2944
2016-02-24T07:50:04.032Z,3300
2016-02-24T07:51:04.019Z,3304
2016-02-24T07:52:04.007Z,3484
2016-02-24T07:53:04.010Z,3664
2016-02-24T07:54:04.012Z,3956
2016-02-24T07:55:03.999Z,4468
2016-02-24T07:56:04.018Z,3900
2016-02-24T07:57:03.988Z,3936
2016-02-24T07:58:03.991Z,4076
2016-02-24T07:59:03.994Z,3996
2016-02-24T08:00:04.028Z,4148
2016-02-24T08:01:03.984Z,4496
2016-02-24T08:02:03.845Z,4576
2016-02-24T08:03:04.005Z,4524
2016-02-24T08:04:03.898Z,4588
2016-02-24T08:05:03.978Z,5672
2016-02-24T08:06:03.982Z,4964
2016-02-24T08:07:03.984Z,4772
2016-02-24T08:08:04.003Z,5172
2016-02-24T08:09:03.973Z,5072
2016-02-24T08:10:03.976Z,5960
2016-02-24T08:11:03.979Z,6040
2016-02-24T08:12:03.967Z,5884
2016-02-24T08:13:03.984Z,5064
2016-02-24T08:14:03.972Z,5488
2016-02-24T08:15:04.036Z,5964
2016-02-24T08:16:04.055Z,4936
2016-02-24T08:17:03.979Z,5628
2016-02-24T08:18:03.982Z,6340
2016-02-24T08:19:04.016Z,6444
2016-02-24T08:20:03.988Z,6488
2016-02-24T08:21:03.974Z,5612
2016-02-24T08:22:04.008Z,6480
2016-02-24T08:23:03.996Z,6468
2016-02-24T08:24:04.014Z,6504
2016-02-24T08:25:04.016Z,6668
2016-02-24T08:26:04.004Z,6972
2016-02-24T08:27:04.022Z,7176
2016-02-24T08:28:04.024Z,7364
2016-02-24T08:29:04.013Z,7400
2016-02-24T08:30:04.015Z,7144
2016-02-24T08:31:04.048Z,7588
2016-02-24T08:32:04.035Z,7876
2016-02-24T08:33:04.054Z,7768
2016-02-24T08:34:04.057Z,7856
2016-02-24T08:35:04.059Z,7720
2016-02-24T08:36:04.062Z,6812
2016-02-24T08:37:04.049Z,6820
2016-02-24T08:38:04.067Z,6812
2016-02-24T08:39:04.070Z,6608
2016-02-24T08:40:04.073Z,6016
2016-02-24T08:41:04.075Z,5816
2016-02-24T08:42:04.094Z,6004
2016-02-24T08:43:04.097Z,5760
2016-02-24T08:44:04.083Z,5660
2016-02-24T08:45:04.102Z,5492
2016-02-24T08:46:04.089Z,5968
2016-02-24T08:47:04.108Z,5952
2016-02-24T08:48:04.110Z,5500
2016-02-24T08:49:04.097Z,4984
2016-02-24T08:50:04.116Z,3764
2016-02-24T08:51:04.118Z,3584
2016-02-24T08:52:04.121Z,3548
2016-02-24T08:53:04.124Z,3616
2016-02-24T08:54:04.126Z,3700
2016-02-24T08:55:04.144Z,3424
2016-02-24T08:56:04.132Z,3352
2016-02-24T08:57:04.135Z,3760
2016-02-24T08:58:04.152Z,2896
2016-02-24T08:59:04.140Z,2732
2016-02-24T09:00:04.143Z,3360
2016-02-24T09:01:04.145Z,2508
2016-02-24T09:02:04.195Z,2392
2016-02-24T09:03:04.198Z,2240
2016-02-24T09:04:04.137Z,2248
2016-02-24T09:05:04.140Z,2312
2016-02-24T09:06:04.143Z,2392
2016-02-24T09:07:04.129Z,2428
2016-02-24T09:08:04.132Z,2460
2016-02-24T09:09:04.167Z,2468
2016-02-24T09:10:04.123Z,2504
2016-02-24T09:11:04.140Z,2560
2016-02-24T09:12:04.128Z,2692
2016-02-24T09:13:04.146Z,2940
2016-02-24T09:14:04.133Z,3160
2016-02-24T09:15:04.150Z,3236
2016-02-24T09:16:04.139Z,3256
2016-02-24T09:17:04.141Z,3292
2016-02-24T09:18:04.144Z,3328
2016-02-24T09:19:04.147Z,3396
2016-02-24T09:20:04.133Z,3588
2016-02-24T09:21:04.121Z,3840
2016-02-24T09:22:04.124Z,3980
2016-02-24T09:23:04.126Z,4004
2016-02-24T09:24:04.129Z,3924
2016-02-24T09:25:04.115Z,3788
2016-02-24T09:26:04.119Z,3580
2016-02-24T09:27:04.137Z,3404
2016-02-24T09:28:04.124Z,3280
2016-02-24T09:29:04.127Z,3164
2016-02-24T09:30:04.129Z,3128
2016-02-24T09:31:04.132Z,3148
2016-02-24T09:32:04.135Z,3228
2016-02-24T09:33:04.121Z,3376
2016-02-24T09:34:04.108Z,3556
2016-02-24T09:35:04.111Z,3756
2016-02-24T09:36:04.129Z,3908
2016-02-24T09:37:04.101Z,4044
2016-02-24T09:38:04.104Z,4264
2016-02-24T09:39:04.106Z,4476
2016-02-24T09:40:04.093Z,4592
2016-02-24T09:41:04.095Z,4660
2016-02-24T09:42:04.099Z,4628
2016-02-24T09:43:04.101Z,4580
2016-02-24T09:44:04.088Z,4468
2016-02-24T09:45:04.107Z,4428
2016-02-24T09:46:04.141Z,4408
2016-02-24T09:47:04.159Z,4352
2016-02-24T09:48:04.097Z,4268
2016-02-24T09:49:04.084Z,4164
2016-02-24T09:50:04.086Z,4144
2016-02-24T09:51:04.074Z,4204
2016-02-24T09:52:04.092Z,4236
2016-02-24T09:53:04.063Z,4276
2016-02-24T09:54:04.082Z,4312
2016-02-24T09:55:04.085Z,4352
2016-02-24T09:56:04.072Z,4404
2016-02-24T09:57:04.058Z,4432
2016-02-24T09:58:04.077Z,4524
2016-02-24T09:59:04.064Z,4568
2016-02-24T10:00:04.066Z,4736
2016-02-24T10:01:04.069Z,4880
2016-02-24T10:02:04.056Z,4984
2016-02-24T10:03:04.043Z,5068
2016-02-24T10:04:04.045Z,5148
2016-02-24T10:05:04.049Z,5192
2016-02-24T10:06:04.051Z,5188
2016-02-24T10:07:04.054Z,5204
2016-02-24T10:08:04.073Z,5236
2016-02-24T10:09:04.059Z,5288
2016-02-24T10:10:04.046Z,5256
2016-02-24T10:11:04.034Z,5276
2016-02-24T10:12:04.036Z,5308
2016-02-24T10:13:04.039Z,5424
2016-02-24T10:14:04.104Z,5624
2016-02-24T10:15:04.045Z,5896
2016-02-24T10:16:04.031Z,6144
2016-02-24T10:17:04.034Z,6356
2016-02-24T10:18:04.022Z,6412
2016-02-24T10:19:04.039Z,6292
2016-02-24T10:20:04.027Z,6112
2016-02-24T10:21:04.030Z,6008
2016-02-24T10:22:04.032Z,5856
2016-02-24T10:23:04.035Z,5644
2016-02-24T10:24:04.022Z,5540
2016-02-24T10:25:04.008Z,5668
2016-02-24T10:26:04.011Z,6004
2016-02-24T10:27:04.030Z,6284
2016-02-24T10:28:04.032Z,6440
2016-02-24T10:29:04.004Z,6620
2016-02-24T10:30:04.022Z,6956
2016-02-24T10:31:03.993Z,7508
2016-02-24T10:32:04.012Z,8024
2016-02-24T10:33:04.015Z,8716
2016-02-24T10:34:04.001Z,9832
2016-02-24T10:35:04.005Z,10548
2016-02-24T10:36:04.023Z,10780
2016-02-24T10:37:03.994Z,11000
2016-02-24T10:38:03.996Z,10976
2016-02-24T10:39:04.015Z,10628
2016-02-24T10:40:04.002Z,9204
2016-02-24T10:41:03.989Z,8624
2016-02-24T10:42:03.992Z,8400
2016-02-24T10:43:04.026Z,9116
2016-02-24T10:44:03.997Z,9532
2016-02-24T10:45:04.016Z,8280
2016-02-24T10:46:04.003Z,9060
2016-02-24T10:47:04.005Z,9148
2016-02-24T10:48:04.008Z,9028
2016-02-24T10:49:03.995Z,9116
2016-02-24T10:50:03.841Z,8828
2016-02-24T10:51:04.000Z,7504
2016-02-24T10:52:04.003Z,7868
2016-02-24T10:53:04.006Z,7728
2016-02-24T10:54:04.009Z,7352
2016-02-24T10:55:04.027Z,6964
2016-02-24T10:56:04.013Z,6968
2016-02-24T10:57:04.002Z,7340
2016-02-24T10:58:04.019Z,6792
2016-02-24T10:59:04.006Z,6424
2016-02-24T11:00:04.025Z,5600
2016-02-24T11:01:04.027Z,5520
2016-02-24T11:02:04.015Z,5664
2016-02-24T11:03:04.002Z,5520
2016-02-24T11:04:04.020Z,5548
2016-02-24T11:05:04.007Z,5608
2016-02-24T11:06:04.010Z,5696
2016-02-24T11:07:04.043Z,5892
2016-02-24T11:08:04.015Z,6100
2016-02-24T11:09:04.017Z,6212
2016-02-24T11:10:04.036Z,6316
2016-02-24T11:11:04.007Z,6364
2016-02-24T11:12:04.010Z,6588
2016-02-24T11:13:04.013Z,6444
2016-02-24T11:14:04.032Z,6584
2016-02-24T11:15:04.050Z,6692
2016-02-24T11:16:04.021Z,7092
2016-02-24T11:17:04.024Z,6928
2016-02-24T11:18:04.011Z,7432
2016-02-24T11:19:04.013Z,8072
2016-02-24T11:20:04.017Z,8448
2016-02-24T11:21:04.019Z,8500
2016-02-24T11:22:04.021Z,8564
2016-02-24T11:23:04.025Z,8536
2016-02-24T11:24:04.042Z,8472
2016-02-24T11:25:04.014Z,8328
2016-02-24T11:26:04.016Z,8168
2016-02-24T11:27:04.019Z,8184
2016-02-24T11:28:04.022Z,8172
2016-02-24T11:29:04.025Z,8076
2016-02-24T11:30:04.011Z,6380
2016-02-24T11:31:04.045Z,6228
2016-02-24T11:32:04.033Z,6264
2016-02-24T11:33:04.019Z,6332
2016-02-24T11:34:04.021Z,6348
2016-02-24T11:35:04.025Z,6228
2016-02-24T11:36:04.027Z,6144
2016-02-24T11:37:04.030Z,6124
2016-02-24T11:38:04.049Z,6120
2016-02-24T11:39:04.020Z,6144
2016-02-24T11:40:04.413Z,6112
2016-02-24T11:41:04.010Z,6512
2016-02-24T11:42:03.997Z,7012
2016-02-24T11:43:04.000Z,6696
2016-02-24T11:44:03.987Z,6636
2016-02-24T11:45:04.005Z,6644
2016-02-24T11:46:04.008Z,6672
2016-02-24T11:47:04.011Z,6620
2016-02-24T11:48:03.997Z,6456
2016-02-24T11:49:04.032Z,6300
2016-02-24T11:50:04.019Z,6276
2016-02-24T11:51:04.005Z,6268
2016-02-24T11:52:04.008Z,6224
2016-02-24T11:53:04.011Z,6072
2016-02-24T11:54:03.998Z,6004
2016-02-24T11:55:04.032Z,6288
2016-02-24T11:56:04.003Z,7456
2016-02-24T11:57:04.005Z,7412
2016-02-24T11:58:04.009Z,7304
2016-02-24T11:59:04.011Z,7216
2016-02-24T12:00:03.998Z,7140
2016-02-24T12:01:04.001Z,7052
2016-02-24T12:02:04.004Z,7056
2016-02-24T12:03:04.007Z,7040
2016-02-24T12:04:04.010Z,7032
2016-02-24T12:05:03.998Z,7000
2016-02-24T12:06:04.017Z,6992
2016-02-24T12:07:04.003Z,7008
2016-02-24T12:08:03.990Z,7020
2016-02-24T12:09:04.009Z,6948
2016-02-24T12:10:04.012Z,7032
2016-02-24T12:11:04.014Z,7080
2016-02-24T12:12:04.017Z,7224
2016-02-24T12:13:04.020Z,7252
2016-02-24T12:14:03.991Z,7560
2016-02-24T12:15:07.028Z,7624
2016-02-24T12:16:04.012Z,6312
2016-02-24T12:17:04.014Z,6160
2016-02-24T12:18:04.002Z,6200
2016-02-24T12:19:03.989Z,6376
2016-02-24T12:20:04.055Z,6392
2016-02-24T12:21:04.010Z,6512
2016-02-24T12:22:04.028Z,6936
2016-02-24T12:23:04.016Z,7644
2016-02-24T12:24:04.033Z,7824
2016-02-24T12:25:03.990Z,7632
2016-02-24T12:26:04.024Z,7248
2016-02-24T12:27:03.995Z,7504
2016-02-24T12:28:03.998Z,6284
2016-02-24T12:29:04.001Z,6572
2016-02-24T12:30:04.003Z,6728
2016-02-24T12:31:04.006Z,6808
2016-02-24T12:32:04.009Z,6784
2016-02-24T12:33:03.995Z,6624
2016-02-24T12:34:03.982Z,6548
2016-02-24T12:35:03.984Z,6608
2016-02-24T12:36:04.003Z,6688
2016-02-24T12:37:04.006Z,6816
2016-02-24T12:38:04.055Z,6972
2016-02-24T12:39:03.995Z,7180
2016-02-24T12:40:04.031Z,8372
2016-02-24T12:41:03.861Z,8424
2016-02-24T12:42:03.988Z,7540
2016-02-24T12:43:04.007Z,7304
2016-02-24T12:44:03.994Z,7224
2016-02-24T12:45:04.028Z,7120
2016-02-24T12:46:04.000Z,7000
2016-02-24T12:47:04.000Z,6936
2016-02-24T12:48:04.008Z,6992
2016-02-24T12:49:03.985Z,7060
2016-02-24T12:50:04.008Z,7164
2016-02-24T12:51:03.985Z,7256
2016-02-24T12:52:03.963Z,7248
2016-02-24T12:53:03.962Z,7148
2016-02-24T12:54:03.961Z,7056
2016-02-24T12:55:03.959Z,7012
2016-02-24T12:56:03.943Z,6964
2016-02-24T12:57:03.942Z,6904
2016-02-24T12:58:03.943Z,6872
2016-02-24T12:59:03.913Z,6808
2016-02-24T13:00:03.963Z,6680
2016-02-24T13:01:03.932Z,6612
2016-02-24T13:02:03.950Z,6616
2016-02-24T13:03:03.936Z,6580
2016-02-24T13:04:03.938Z,6652
2016-02-24T13:05:03.942Z,6628
2016-02-24T13:06:03.913Z,6476
2016-02-24T13:07:03.962Z,6448
2016-02-24T13:08:03.917Z,6548
2016-02-24T13:09:03.920Z,6616
2016-02-24T13:10:03.922Z,6548
2016-02-24T13:11:03.924Z,6536
2016-02-24T13:12:03.926Z,6592
2016-02-24T13:13:03.945Z,6580
2016-02-24T13:14:03.916Z,6500
2016-02-24T13:15:03.966Z,6816
2016-02-24T13:16:04.016Z,6896
2016-02-24T13:17:03.957Z,6932
2016-02-24T13:18:03.943Z,7208
2016-02-24T13:19:03.946Z,7832
2016-02-24T13:20:03.979Z,7904
2016-02-24T13:21:03.935Z,7836
2016-02-24T13:22:03.938Z,6972
2016-02-24T13:23:03.940Z,6788
2016-02-24T13:24:03.928Z,7028
2016-02-24T13:25:03.961Z,7200
2016-02-24T13:26:03.949Z,6832
2016-02-24T13:27:03.951Z,6664
2016-02-24T13:28:03.938Z,6772
2016-02-24T13:29:03.942Z,6704
2016-02-24T13:30:03.959Z,6572
2016-02-24T13:31:03.947Z,6688
2016-02-24T13:32:03.809Z,6424
2016-02-24T13:33:03.952Z,6284
2016-02-24T13:34:03.970Z,5708
2016-02-24T13:35:03.973Z,5896
2016-02-24T13:36:03.975Z,6040
2016-02-24T13:37:03.947Z,6488
2016-02-24T13:38:03.965Z,6456
2016-02-24T13:39:03.969Z,6580
2016-02-24T13:40:03.955Z,6468
2016-02-24T13:41:03.942Z,6576
2016-02-24T13:42:03.977Z,6736
2016-02-24T13:43:03.963Z,6632
2016-02-24T13:44:03.951Z,6852
2016-02-24T13:45:03.968Z,6928
2016-02-24T13:46:03.988Z,6764
2016-02-24T13:47:04.021Z,6412
2016-02-24T13:48:03.976Z,6072
2016-02-24T13:49:03.948Z,5916
2016-02-24T13:50:03.982Z,5852
2016-02-24T13:51:03.984Z,5812
2016-02-24T13:52:03.988Z,5676
2016-02-24T13:53:03.959Z,5580
2016-02-24T13:54:04.009Z,5484
2016-02-24T13:55:03.981Z,5716
2016-02-24T13:56:03.984Z,5988